createdAt,value
2023-04-17T00:01:10.047Z,21.17
2023-04-17T00:05:32.076Z,21.75
2023-04-17T00:09:54.105Z,19.35
2023-04-17T00:14:15.826Z,20.83
2023-04-17T00:18:37.874Z,22.13
2023-04-17T00:22:59.807Z,21.77
2023-04-17T00:27:21.868Z,22.77
2023-04-17T00:31:44.064Z,25.50
2023-04-17T00:36:07.346Z,23.95
2023-04-17T00:40:29.620Z,23.15
2023-04-17T00:44:51.557Z,22.83
2023-04-17T00:49:15.991Z,22.92
2023-04-17T00:53:40.231Z,23.83
2023-04-17T00:58:05.311Z,22.80
2023-04-17T01:02:28.262Z,23.30
2023-04-17T01:06:50.225Z,23.42
2023-04-17T01:11:13.284Z,22.83
2023-04-17T01:15:36.651Z,20.70
2023-04-17T01:19:59.487Z,19.40
2023-04-17T01:24:21.865Z,22.73
2023-04-17T01:28:44.563Z,19.40
2023-04-17T01:33:07.314Z,18.88
2023-04-17T01:37:29.826Z,18.30
2023-04-17T01:41:52.032Z,20.17
2023-04-17T01:46:14.428Z,17.92
2023-04-17T01:50:36.491Z,20.20
2023-04-17T01:54:58.849Z,18.00
2023-04-17T01:59:21.214Z,18.05
2023-04-17T02:03:43.339Z,17.88
2023-04-17T02:08:05.923Z,18.92
2023-04-17T02:12:27.910Z,20.08
2023-04-17T02:16:50.321Z,18.83
2023-04-17T02:21:12.733Z,18.80
2023-04-17T02:25:34.978Z,17.83
2023-04-17T02:29:58.705Z,16.67
2023-04-17T02:34:20.827Z,17.23
2023-04-17T02:38:45.203Z,18.08
2023-04-17T02:43:09.006Z,20.10
2023-04-17T02:47:31.631Z,17.52
2023-04-17T02:51:55.639Z,17.77
2023-04-17T02:56:17.850Z,17.33
2023-04-17T03:00:41.105Z,16.42
2023-04-17T03:05:09.360Z,16.27
2023-04-17T03:09:31.249Z,16.08
2023-04-17T03:13:53.378Z,15.10
2023-04-17T03:18:17.001Z,13.75
2023-04-17T03:22:39.345Z,16.80
2023-04-17T03:27:02.508Z,14.65
2023-04-17T03:31:32.585Z,15.93
2023-04-17T03:35:55.039Z,15.65
2023-04-17T03:40:17.012Z,16.15
2023-04-17T03:44:41.589Z,16.35
2023-04-17T03:49:03.793Z,16.60
2023-04-17T03:53:26.111Z,17.17
2023-04-17T03:57:51.273Z,15.68
2023-04-17T04:02:14.999Z,16.40
2023-04-17T04:06:39.710Z,18.75
2023-04-17T04:11:04.723Z,19.38
2023-04-17T04:15:30.904Z,20.05
2023-04-17T04:19:57.081Z,18.77
2023-04-17T04:24:20.566Z,18.10
2023-04-17T04:28:43.597Z,17.23
2023-04-17T04:33:15.021Z,14.02
2023-04-17T04:37:37.163Z,14.88
2023-04-17T04:42:06.360Z,13.85
2023-04-17T04:46:42.111Z,15.55
2023-04-17T04:51:04.309Z,16.02
2023-04-17T04:55:27.165Z,21.77
2023-04-17T04:59:52.266Z,23.10
2023-04-17T05:04:27.663Z,14.80
2023-04-17T05:08:54.535Z,12.90
2023-04-17T05:13:16.745Z,13.25
2023-04-17T05:17:39.333Z,11.90
2023-04-17T05:22:01.698Z,14.55
2023-04-17T05:26:26.568Z,11.95
2023-04-17T05:30:48.676Z,11.18
2023-04-17T05:35:16.352Z,9.65
2023-04-17T05:39:39.326Z,9.25
2023-04-17T05:44:03.529Z,8.73
2023-04-17T05:48:25.909Z,8.52
2023-04-17T05:52:48.766Z,8.48
2023-04-17T05:57:12.166Z,8.70
2023-04-17T06:01:36.104Z,16.33
2023-04-17T06:05:58.641Z,15.23
2023-04-17T06:10:21.128Z,11.23
2023-04-17T06:14:43.926Z,10.38
2023-04-17T06:19:06.688Z,12.75
2023-04-17T06:23:28.787Z,13.05
2023-04-17T06:27:51.069Z,10.57
2023-04-17T06:32:13.368Z,10.65
2023-04-17T06:36:36.121Z,10.68
2023-04-17T06:40:59.168Z,8.48
2023-04-17T06:45:21.488Z,8.18
2023-04-17T06:49:43.709Z,7.97
2023-04-17T06:54:09.986Z,9.52
2023-04-17T06:58:32.397Z,8.35
2023-04-17T07:02:54.490Z,6.00
2023-04-17T07:07:16.511Z,6.68
2023-04-17T07:11:38.617Z,7.05
2023-04-17T07:16:01.501Z,8.65
2023-04-17T07:20:23.804Z,7.25
2023-04-17T07:24:46.043Z,4.78
2023-04-17T07:29:08.129Z,6.30
2023-04-17T07:33:30.045Z,6.90
2023-04-17T07:37:52.413Z,11.27
2023-04-17T07:42:14.303Z,8.32
2023-04-17T07:46:36.666Z,9.60
2023-04-17T07:51:02.195Z,9.90
2023-04-17T07:55:24.426Z,13.65
2023-04-17T07:59:46.848Z,10.93
2023-04-17T08:04:09.442Z,8.18
2023-04-17T08:08:31.584Z,7.38
2023-04-17T08:12:53.579Z,6.15
2023-04-17T08:17:20.446Z,7.15
2023-04-17T08:21:42.513Z,7.13
2023-04-17T08:26:05.258Z,5.13
2023-04-17T08:30:27.446Z,5.72
2023-04-17T08:34:49.504Z,9.30
2023-04-17T08:39:12.704Z,6.47
2023-04-17T08:43:36.603Z,7.97
2023-04-17T08:47:59.289Z,8.65
2023-04-17T08:52:21.206Z,7.70
2023-04-17T08:56:43.483Z,5.60
2023-04-17T09:01:11.259Z,6.03
2023-04-17T09:05:33.815Z,6.25
2023-04-17T09:09:57.493Z,5.57
2023-04-17T09:14:32.233Z,5.55
2023-04-17T09:19:07.100Z,6.60
2023-04-17T09:23:31.830Z,5.43
2023-04-17T09:27:54.889Z,9.45
2023-04-17T09:32:17.133Z,11.73
2023-04-17T09:36:42.253Z,13.82
2023-04-17T09:41:04.914Z,14.18
2023-04-17T09:45:33.535Z,15.40
2023-04-17T09:49:56.269Z,13.23
2023-04-17T09:54:20.409Z,15.82
2023-04-17T09:58:42.868Z,11.68
2023-04-17T10:03:07.379Z,12.45
2023-04-17T10:07:30.205Z,14.75
2023-04-17T10:11:53.604Z,13.77
2023-04-17T10:16:15.886Z,11.55
2023-04-17T10:20:39.157Z,11.18
2023-04-17T10:25:13.370Z,12.82
2023-04-17T10:30:03.129Z,11.75
2023-04-17T10:34:38.909Z,10.57
2023-04-17T10:39:18.572Z,15.27
2023-04-17T10:43:44.504Z,18.45
2023-04-17T10:48:06.549Z,14.45
2023-04-17T10:52:41.638Z,13.35
2023-04-17T10:57:11.189Z,14.85
2023-04-17T11:01:47.594Z,16.02
2023-04-17T11:06:10.386Z,12.90
2023-04-17T11:10:37.441Z,14.57
2023-04-17T11:15:07.244Z,15.73
2023-04-17T11:19:29.518Z,13.52
2023-04-17T11:23:52.635Z,12.55
2023-04-17T11:28:14.772Z,15.00
2023-04-17T11:32:37.212Z,15.48
2023-04-17T11:37:01.569Z,17.13
2023-04-17T11:41:23.851Z,12.88
2023-04-17T11:45:48.652Z,13.57
2023-04-17T11:50:11.150Z,13.60
2023-04-17T11:54:38.029Z,14.70
2023-04-17T11:59:01.698Z,13.57
2023-04-17T12:03:35.888Z,15.13
2023-04-17T12:08:07.545Z,14.30
2023-04-17T12:12:30.669Z,14.23
2023-04-17T12:16:52.788Z,15.68
2023-04-17T12:21:15.177Z,15.73
2023-04-17T12:25:37.053Z,13.52
2023-04-17T12:29:59.350Z,11.95
2023-04-17T12:34:21.871Z,13.93
2023-04-17T12:38:44.206Z,12.07
2023-04-17T12:43:08.493Z,12.10
2023-04-17T12:47:30.963Z,12.32
2023-04-17T12:51:53.225Z,14.60
2023-04-17T12:56:15.508Z,14.70
2023-04-17T13:00:39.686Z,14.93
2023-04-17T13:05:01.810Z,13.68
2023-04-17T13:09:24.026Z,15.63
2023-04-17T13:13:46.154Z,16.40
2023-04-17T13:18:08.397Z,16.50
2023-04-17T13:22:30.360Z,18.10
2023-04-17T13:26:53.181Z,14.93
2023-04-17T13:31:15.395Z,14.32
2023-04-17T13:35:37.439Z,16.73
2023-04-17T13:39:59.958Z,15.13
2023-04-17T13:44:22.209Z,15.02
2023-04-17T13:48:44.878Z,14.82
2023-04-17T13:53:07.732Z,15.38
2023-04-17T13:57:31.147Z,18.58
2023-04-17T14:01:53.648Z,19.05
2023-04-17T14:06:17.974Z,17.88
2023-04-17T14:10:39.916Z,16.92
2023-04-17T14:15:02.251Z,16.98
2023-04-17T14:19:24.683Z,17.33
2023-04-17T14:23:46.924Z,20.40
2023-04-17T14:28:08.700Z,19.17
2023-04-17T14:32:30.785Z,20.88
2023-04-17T14:36:54.363Z,25.50
2023-04-17T14:41:18.165Z,18.70
2023-04-17T14:45:40.636Z,17.40
2023-04-17T14:50:04.169Z,19.55
2023-04-17T14:54:26.665Z,20.25
2023-04-17T14:58:48.762Z,22.92
2023-04-17T15:03:10.723Z,21.38
2023-04-17T15:07:33.204Z,18.83
2023-04-17T15:11:54.997Z,20.58
2023-04-17T15:16:17.339Z,25.98
2023-04-17T15:20:40.765Z,18.95
2023-04-17T15:25:03.213Z,18.90
2023-04-17T15:29:26.108Z,19.23
2023-04-17T15:33:48.460Z,19.70
2023-04-17T15:38:10.567Z,18.33
2023-04-17T15:42:33.089Z,20.15
2023-04-17T15:46:56.032Z,19.38
2023-04-17T15:51:20.070Z,22.08
2023-04-17T15:55:42.386Z,20.05
2023-04-17T16:00:05.104Z,18.08
2023-04-17T16:04:32.341Z,18.17
2023-04-17T16:08:54.885Z,23.48
2023-04-17T16:13:17.026Z,19.98
2023-04-17T16:17:39.669Z,22.27
2023-04-17T16:22:02.746Z,20.33
2023-04-17T16:26:26.225Z,19.48
2023-04-17T16:30:48.734Z,22.40
2023-04-17T16:35:10.973Z,21.33
2023-04-17T16:39:33.300Z,21.60
2023-04-17T16:43:55.782Z,24.45
2023-04-17T16:48:17.821Z,24.05
2023-04-17T16:52:43.484Z,22.58
2023-04-17T16:57:08.723Z,23.13
2023-04-17T17:01:32.608Z,38.28
2023-04-17T17:05:56.605Z,21.38
2023-04-17T17:10:19.086Z,22.85
2023-04-17T17:14:41.000Z,24.77
2023-04-17T17:19:03.281Z,25.73
2023-04-17T17:23:25.184Z,22.92
2023-04-17T17:27:47.252Z,20.33
2023-04-17T17:32:09.678Z,20.75
2023-04-17T17:36:31.845Z,19.48
2023-04-17T17:40:54.625Z,24.48
2023-04-17T17:45:16.496Z,20.00
2023-04-17T17:49:38.553Z,19.00
2023-04-17T17:54:00.868Z,17.08
2023-04-17T17:58:23.334Z,18.77
2023-04-17T18:02:45.805Z,17.48
2023-04-17T18:07:08.381Z,18.25
2023-04-17T18:11:30.747Z,16.98
2023-04-17T18:15:53.114Z,16.83
2023-04-17T18:20:15.540Z,17.08
2023-04-17T18:24:37.449Z,17.33
2023-04-17T18:28:59.368Z,13.93
2023-04-17T18:33:21.436Z,14.88
2023-04-17T18:37:45.309Z,13.75
2023-04-17T18:42:07.653Z,39.97
2023-04-17T18:46:30.668Z,14.15
2023-04-17T18:50:52.800Z,13.15
2023-04-17T18:55:14.881Z,13.77
2023-04-17T18:59:37.116Z,13.88
2023-04-17T19:03:59.205Z,13.73
2023-04-17T19:08:21.288Z,17.45
2023-04-17T19:12:44.397Z,13.63
2023-04-17T19:17:06.309Z,13.70
2023-04-17T19:21:28.683Z,14.05
2023-04-17T19:25:55.087Z,14.35
2023-04-17T19:30:17.486Z,13.68
2023-04-17T19:34:39.633Z,14.05
2023-04-17T19:39:02.127Z,13.82
2023-04-17T19:43:24.069Z,11.48
2023-04-17T19:47:46.261Z,14.45
2023-04-17T19:52:08.178Z,15.05
2023-04-17T19:56:30.318Z,12.60
2023-04-17T20:00:52.428Z,14.27
2023-04-17T20:05:14.683Z,12.48
2023-04-17T20:09:36.663Z,12.57
2023-04-17T20:13:58.464Z,12.75
2023-04-17T20:18:20.394Z,14.70
2023-04-17T20:22:43.166Z,13.52
2023-04-17T20:27:06.422Z,12.05
2023-04-17T20:31:28.731Z,15.23
2023-04-17T20:35:51.009Z,12.80
2023-04-17T20:40:15.064Z,11.68
2023-04-17T20:44:37.489Z,13.05
2023-04-17T20:48:59.411Z,12.55
2023-04-17T20:53:21.543Z,12.20
2023-04-17T20:57:44.085Z,13.43
2023-04-17T21:02:06.600Z,14.23
2023-04-17T21:06:28.563Z,13.50
2023-04-17T21:10:52.761Z,12.63
2023-04-17T21:15:15.189Z,12.30
2023-04-17T21:19:37.544Z,14.10
2023-04-17T21:23:59.404Z,15.90
2023-04-17T21:28:21.644Z,12.82
2023-04-17T21:32:48.423Z,14.23
2023-04-17T21:37:10.407Z,14.02
2023-04-17T21:41:32.765Z,16.00
2023-04-17T21:45:57.182Z,15.45
2023-04-17T21:50:19.222Z,17.80
2023-04-17T21:54:41.875Z,16.73
2023-04-17T21:59:04.214Z,15.88
2023-04-17T22:03:26.361Z,16.42
2023-04-17T22:07:55.062Z,16.92
2023-04-17T22:12:20.744Z,18.75
2023-04-17T22:16:43.430Z,20.48
2023-04-17T22:21:06.229Z,23.90
2023-04-17T22:25:28.343Z,27.75
2023-04-17T22:29:54.451Z,27.02
2023-04-17T22:34:21.175Z,32.67
2023-04-17T22:38:43.787Z,30.50
2023-04-17T22:43:00.248Z,34.80
2023-04-17T22:47:22.656Z,31.85
2023-04-17T22:51:44.611Z,28.88
2023-04-17T22:56:07.651Z,37.40
2023-04-17T23:00:21.387Z,38.95
2023-04-17T23:04:43.743Z,32.78
2023-04-17T23:09:06.171Z,37.28
2023-04-17T23:13:28.872Z,39.03
2023-04-17T23:17:50.858Z,40.42
2023-04-17T23:22:12.921Z,48.05
2023-04-17T23:26:35.126Z,45.10
2023-04-17T23:30:58.559Z,39.53
2023-04-17T23:35:23.520Z,42.50
2023-04-17T23:39:45.840Z,40.45
2023-04-17T23:44:08.239Z,39.50
2023-04-17T23:48:30.048Z,42.40
2023-04-17T23:52:54.367Z,38.08
2023-04-17T23:57:17.460Z,42.33
